Downsville, New York
Current Conditions -  °F | °C
As of 7:15 PM on Saturday 22 Nov 2014 (Local Time) from KMSV Reporting Station
Overcast Overcast  
Wind Chill: 31°   Ceiling: 2500
Heat Index: 37°   Visibility: 10mi
Dew Point: 19°   Wind: 8mph
Humidity: 48%   Direction: 240°WSW
Pressure: 30.16"   Gusts: NA
Location:  42.08°N, 75°W
Report Text: KMSV 230015Z AUTO 24007KT 10SM BKN025 OVC035 03/M07 A3016 RMK AO1
Loading
Personal Weather Stations






























Interactive Weather Map New forecast layout! Learn more

10-Day Weather Forecast

Advertisements
Track Severe Weather on mobile